sensor_id;sensor_type;location;lat;lon;timestamp;P1;durP1;ratioP1;P2;durP2;ratioP2
13083;SDS011;6608;48.790;9.198;2024-03-06T00:01:40;115.80;;;56.47;;
13083;SDS011;6608;48.790;9.198;2024-03-06T00:04:06;117.53;;;56.57;;
13083;SDS011;6608;48.790;9.198;2024-03-06T00:06:33;117.70;;;57.90;;
13083;SDS011;6608;48.790;9.198;2024-03-06T00:08:59;115.83;;;57.17;;
13083;SDS011;6608;48.790;9.198;2024-03-06T00:11:27;121.17;;;57.93;;
13083;SDS011;6608;48.790;9.198;2024-03-06T00:13:54;120.93;;;58.87;;
13083;SDS011;6608;48.790;9.198;2024-03-06T00:16:20;122.67;;;59.00;;
13083;SDS011;6608;48.790;9.198;2024-03-06T00:18:48;121.10;;;58.20;;
13083;SDS011;6608;48.790;9.198;2024-03-06T00:21:14;119.83;;;58.27;;
13083;SDS011;6608;48.790;9.198;2024-03-06T00:23:41;119.57;;;57.73;;
13083;SDS011;6608;48.790;9.198;2024-03-06T00:26:07;118.77;;;57.87;;
13083;SDS011;6608;48.790;9.198;2024-03-06T00:28:35;120.83;;;59.10;;
13083;SDS011;6608;48.790;9.198;2024-03-06T00:31:01;125.07;;;58.73;;
13083;SDS011;6608;48.790;9.198;2024-03-06T00:33:27;124.30;;;59.80;;
13083;SDS011;6608;48.790;9.198;2024-03-06T00:35:56;114.53;;;55.63;;
13083;SDS011;6608;48.790;9.198;2024-03-06T00:38:22;119.60;;;58.13;;
13083;SDS011;6608;48.790;9.198;2024-03-06T00:40:49;121.27;;;58.50;;
13083;SDS011;6608;48.790;9.198;2024-03-06T00:43:15;118.73;;;58.43;;
13083;SDS011;6608;48.790;9.198;2024-03-06T00:45:42;118.73;;;58.27;;
13083;SDS011;6608;48.790;9.198;2024-03-06T00:48:08;120.43;;;58.47;;
13083;SDS011;6608;48.790;9.198;2024-03-06T00:50:34;119.87;;;58.50;;
13083;SDS011;6608;48.790;9.198;2024-03-06T00:53:02;122.80;;;58.97;;
13083;SDS011;6608;48.790;9.198;2024-03-06T00:55:29;120.43;;;59.43;;
13083;SDS011;6608;48.790;9.198;2024-03-06T00:57:55;122.77;;;59.50;;
13083;SDS011;6608;48.790;9.198;2024-03-06T01:00:21;123.93;;;59.37;;
13083;SDS011;6608;48.790;9.198;2024-03-06T01:02:48;121.63;;;60.20;;
13083;SDS011;6608;48.790;9.198;2024-03-06T01:05:14;122.57;;;59.50;;
13083;SDS011;6608;48.790;9.198;2024-03-06T01:07:42;122.70;;;59.77;;
13083;SDS011;6608;48.790;9.198;2024-03-06T01:10:10;121.63;;;60.50;;
13083;SDS011;6608;48.790;9.198;2024-03-06T01:12:36;120.77;;;59.47;;
13083;SDS011;6608;48.790;9.198;2024-03-06T01:15:03;121.27;;;58.77;;
13083;SDS011;6608;48.790;9.198;2024-03-06T01:17:30;120.07;;;59.73;;
13083;SDS011;6608;48.790;9.198;2024-03-06T01:19:56;123.40;;;59.53;;
13083;SDS011;6608;48.790;9.198;2024-03-06T01:22:49;118.63;;;58.17;;
13083;SDS011;6608;48.790;9.198;2024-03-06T01:25:16;118.23;;;58.50;;
13083;SDS011;6608;48.790;9.198;2024-03-06T01:27:42;119.33;;;58.77;;
13083;SDS011;6608;48.790;9.198;2024-03-06T01:30:09;121.83;;;59.13;;
13083;SDS011;6608;48.790;9.198;2024-03-06T01:32:35;119.80;;;57.57;;
13083;SDS011;6608;48.790;9.198;2024-03-06T01:35:02;123.43;;;60.13;;
13083;SDS011;6608;48.790;9.198;2024-03-06T01:37:30;119.17;;;58.43;;
13083;SDS011;6608;48.790;9.198;2024-03-06T01:39:58;121.70;;;59.47;;
13083;SDS011;6608;48.790;9.198;2024-03-06T01:42:24;120.87;;;58.93;;
13083;SDS011;6608;48.790;9.198;2024-03-06T01:44:51;119.60;;;59.63;;
13083;SDS011;6608;48.790;9.198;2024-03-06T01:47:17;119.63;;;58.47;;
13083;SDS011;6608;48.790;9.198;2024-03-06T01:49:43;121.33;;;58.93;;
13083;SDS011;6608;48.790;9.198;2024-03-06T01:52:11;118.37;;;58.63;;
13083;SDS011;6608;48.790;9.198;2024-03-06T01:54:39;120.03;;;59.17;;
13083;SDS011;6608;48.790;9.198;2024-03-06T01:57:07;118.47;;;58.10;;
13083;SDS011;6608;48.790;9.198;2024-03-06T01:59:34;118.27;;;57.70;;
13083;SDS011;6608;48.790;9.198;2024-03-06T02:02:00;118.37;;;58.47;;
13083;SDS011;6608;48.790;9.198;2024-03-06T02:04:28;114.30;;;57.03;;
13083;SDS011;6608;48.790;9.198;2024-03-06T02:06:55;120.53;;;59.30;;
13083;SDS011;6608;48.790;9.198;2024-03-06T02:09:22;121.73;;;59.13;;
13083;SDS011;6608;48.790;9.198;2024-03-06T02:11:49;119.97;;;59.43;;
13083;SDS011;6608;48.790;9.198;2024-03-06T02:14:17;121.30;;;58.90;;
13083;SDS011;6608;48.790;9.198;2024-03-06T02:16:44;120.67;;;59.03;;
13083;SDS011;6608;48.790;9.198;2024-03-06T02:19:10;121.50;;;58.83;;
13083;SDS011;6608;48.790;9.198;2024-03-06T02:21:38;118.87;;;58.70;;
13083;SDS011;6608;48.790;9.198;2024-03-06T02:24:04;120.23;;;59.23;;
13083;SDS011;6608;48.790;9.198;2024-03-06T02:26:31;122.00;;;60.47;;
13083;SDS011;6608;48.790;9.198;2024-03-06T02:28:57;125.90;;;61.20;;
13083;SDS011;6608;48.790;9.198;2024-03-06T02:31:24;122.87;;;60.27;;
13083;SDS011;6608;48.790;9.198;2024-03-06T02:33:50;125.90;;;62.07;;
13083;SDS011;6608;48.790;9.198;2024-03-06T02:36:16;115.63;;;58.10;;
13083;SDS011;6608;48.790;9.198;2024-03-06T02:38:44;122.63;;;61.50;;
13083;SDS011;6608;48.790;9.198;2024-03-06T02:41:11;120.93;;;60.47;;
13083;SDS011;6608;48.790;9.198;2024-03-06T02:43:40;121.63;;;60.60;;
13083;SDS011;6608;48.790;9.198;2024-03-06T02:46:07;121.23;;;59.93;;
13083;SDS011;6608;48.790;9.198;2024-03-06T02:48:33;121.07;;;59.73;;
13083;SDS011;6608;48.790;9.198;2024-03-06T02:51:00;120.10;;;60.20;;
13083;SDS011;6608;48.790;9.198;2024-03-06T02:53:26;120.80;;;60.77;;
13083;SDS011;6608;48.790;9.198;2024-03-06T02:55:54;120.43;;;60.13;;
13083;SDS011;6608;48.790;9.198;2024-03-06T02:58:20;120.60;;;60.27;;
13083;SDS011;6608;48.790;9.198;2024-03-06T03:00:47;121.57;;;60.57;;
13083;SDS011;6608;48.790;9.198;2024-03-06T03:03:13;122.50;;;60.13;;
13083;SDS011;6608;48.790;9.198;2024-03-06T03:05:40;121.40;;;59.13;;
13083;SDS011;6608;48.790;9.198;2024-03-06T03:08:06;119.83;;;57.87;;
13083;SDS011;6608;48.790;9.198;2024-03-06T03:10:33;118.17;;;58.07;;
13083;SDS011;6608;48.790;9.198;2024-03-06T03:13:01;117.30;;;57.77;;
13083;SDS011;6608;48.790;9.198;2024-03-06T03:15:29;118.33;;;58.23;;
13083;SDS011;6608;48.790;9.198;2024-03-06T03:17:56;116.40;;;57.67;;
13083;SDS011;6608;48.790;9.198;2024-03-06T03:20:22;116.93;;;57.43;;
13083;SDS011;6608;48.790;9.198;2024-03-06T03:22:49;116.27;;;57.30;;
13083;SDS011;6608;48.790;9.198;2024-03-06T03:25:15;115.37;;;57.17;;
13083;SDS011;6608;48.790;9.198;2024-03-06T03:27:41;115.87;;;57.37;;
13083;SDS011;6608;48.790;9.198;2024-03-06T03:30:10;116.67;;;57.37;;
13083;SDS011;6608;48.790;9.198;2024-03-06T03:32:37;119.93;;;57.80;;
13083;SDS011;6608;48.790;9.198;2024-03-06T03:35:04;115.23;;;56.73;;
13083;SDS011;6608;48.790;9.198;2024-03-06T03:37:30;110.80;;;55.13;;
13083;SDS011;6608;48.790;9.198;2024-03-06T03:39:56;115.80;;;57.10;;
13083;SDS011;6608;48.790;9.198;2024-03-06T03:42:23;117.33;;;57.10;;
13083;SDS011;6608;48.790;9.198;2024-03-06T03:44:49;115.57;;;56.80;;
13083;SDS011;6608;48.790;9.198;2024-03-06T03:47:17;118.03;;;57.30;;
13083;SDS011;6608;48.790;9.198;2024-03-06T03:49:44;118.03;;;56.67;;
13083;SDS011;6608;48.790;9.198;2024-03-06T03:52:10;118.60;;;57.43;;
13083;SDS011;6608;48.790;9.198;2024-03-06T03:54:37;115.50;;;56.50;;
13083;SDS011;6608;48.790;9.198;2024-03-06T03:57:03;115.87;;;57.03;;
13083;SDS011;6608;48.790;9.198;2024-03-06T03:59:31;113.43;;;56.07;;
13083;SDS011;6608;48.790;9.198;2024-03-06T04:01:58;114.43;;;56.63;;
13083;SDS011;6608;48.790;9.198;2024-03-06T04:04:25;115.30;;;56.93;;
13083;SDS011;6608;48.790;9.198;2024-03-06T04:06:52;113.03;;;55.93;;
13083;SDS011;6608;48.790;9.198;2024-03-06T04:09:18;117.73;;;56.63;;
13083;SDS011;6608;48.790;9.198;2024-03-06T04:11:45;115.20;;;56.57;;
13083;SDS011;6608;48.790;9.198;2024-03-06T04:14:11;112.07;;;55.17;;
13083;SDS011;6608;48.790;9.198;2024-03-06T04:16:38;116.40;;;56.40;;
13083;SDS011;6608;48.790;9.198;2024-03-06T04:19:04;116.67;;;57.23;;
13083;SDS011;6608;48.790;9.198;2024-03-06T04:21:32;114.60;;;56.40;;
13083;SDS011;6608;48.790;9.198;2024-03-06T04:23:58;117.53;;;57.27;;
13083;SDS011;6608;48.790;9.198;2024-03-06T04:26:24;116.30;;;57.30;;
13083;SDS011;6608;48.790;9.198;2024-03-06T04:28:51;116.77;;;57.50;;
13083;SDS011;6608;48.790;9.198;2024-03-06T04:31:17;115.30;;;56.43;;
13083;SDS011;6608;48.790;9.198;2024-03-06T04:33:44;115.03;;;56.87;;
13083;SDS011;6608;48.790;9.198;2024-03-06T04:36:10;115.40;;;57.03;;
13083;SDS011;6608;48.790;9.198;2024-03-06T04:38:38;117.37;;;55.63;;
13083;SDS011;6608;48.790;9.198;2024-03-06T04:41:05;107.73;;;53.63;;
13083;SDS011;6608;48.790;9.198;2024-03-06T04:43:31;114.27;;;56.70;;
13083;SDS011;6608;48.790;9.198;2024-03-06T04:45:57;114.43;;;56.63;;
13083;SDS011;6608;48.790;9.198;2024-03-06T04:48:24;113.47;;;56.13;;
13083;SDS011;6608;48.790;9.198;2024-03-06T04:50:50;116.60;;;57.33;;
13083;SDS011;6608;48.790;9.198;2024-03-06T04:53:18;118.43;;;56.70;;
13083;SDS011;6608;48.790;9.198;2024-03-06T04:55:46;117.10;;;56.23;;
13083;SDS011;6608;48.790;9.198;2024-03-06T04:58:13;116.37;;;57.00;;
13083;SDS011;6608;48.790;9.198;2024-03-06T05:00:39;117.17;;;56.50;;
13083;SDS011;6608;48.790;9.198;2024-03-06T05:03:06;115.37;;;55.80;;
13083;SDS011;6608;48.790;9.198;2024-03-06T05:05:32;114.17;;;56.20;;
13083;SDS011;6608;48.790;9.198;2024-03-06T05:07:58;116.20;;;56.30;;
13083;SDS011;6608;48.790;9.198;2024-03-06T05:10:25;115.03;;;57.03;;
13083;SDS011;6608;48.790;9.198;2024-03-06T05:12:53;116.70;;;56.60;;
13083;SDS011;6608;48.790;9.198;2024-03-06T05:15:20;116.60;;;57.70;;
13083;SDS011;6608;48.790;9.198;2024-03-06T05:17:46;112.27;;;55.40;;
13083;SDS011;6608;48.790;9.198;2024-03-06T05:20:13;114.70;;;55.70;;
13083;SDS011;6608;48.790;9.198;2024-03-06T05:22:40;118.20;;;57.33;;
13083;SDS011;6608;48.790;9.198;2024-03-06T05:25:06;115.30;;;57.00;;
13083;SDS011;6608;48.790;9.198;2024-03-06T05:27:33;114.10;;;56.10;;
13083;SDS011;6608;48.790;9.198;2024-03-06T05:30:01;114.13;;;56.17;;
13083;SDS011;6608;48.790;9.198;2024-03-06T05:32:29;116.57;;;56.60;;
13083;SDS011;6608;48.790;9.198;2024-03-06T05:34:55;115.30;;;56.17;;
13083;SDS011;6608;48.790;9.198;2024-03-06T05:37:23;113.73;;;56.17;;
13083;SDS011;6608;48.790;9.198;2024-03-06T05:39:49;108.37;;;53.83;;
13083;SDS011;6608;48.790;9.198;2024-03-06T05:42:15;115.97;;;57.20;;
13083;SDS011;6608;48.790;9.198;2024-03-06T05:44:42;115.03;;;56.67;;
13083;SDS011;6608;48.790;9.198;2024-03-06T05:47:10;115.30;;;56.70;;
13083;SDS011;6608;48.790;9.198;2024-03-06T05:49:36;120.37;;;57.27;;
13083;SDS011;6608;48.790;9.198;2024-03-06T05:52:03;115.23;;;56.73;;
13083;SDS011;6608;48.790;9.198;2024-03-06T05:54:29;115.23;;;57.03;;
13083;SDS011;6608;48.790;9.198;2024-03-06T05:56:58;114.73;;;56.50;;
13083;SDS011;6608;48.790;9.198;2024-03-06T05:59:25;115.43;;;57.10;;
13083;SDS011;6608;48.790;9.198;2024-03-06T06:01:51;113.90;;;56.30;;
13083;SDS011;6608;48.790;9.198;2024-03-06T06:04:19;114.90;;;56.67;;
13083;SDS011;6608;48.790;9.198;2024-03-06T06:06:47;118.60;;;58.27;;
13083;SDS011;6608;48.790;9.198;2024-03-06T06:09:13;119.87;;;58.87;;
13083;SDS011;6608;48.790;9.198;2024-03-06T06:11:41;120.07;;;58.53;;
13083;SDS011;6608;48.790;9.198;2024-03-06T06:14:07;115.23;;;57.03;;
13083;SDS011;6608;48.790;9.198;2024-03-06T06:16:37;116.70;;;58.03;;
13083;SDS011;6608;48.790;9.198;2024-03-06T06:19:03;117.07;;;56.87;;
13083;SDS011;6608;48.790;9.198;2024-03-06T06:21:32;120.13;;;57.93;;
13083;SDS011;6608;48.790;9.198;2024-03-06T06:23:58;120.73;;;58.20;;
13083;SDS011;6608;48.790;9.198;2024-03-06T06:26:25;115.50;;;57.10;;
13083;SDS011;6608;48.790;9.198;2024-03-06T06:28:51;117.53;;;56.90;;
13083;SDS011;6608;48.790;9.198;2024-03-06T06:31:17;115.77;;;57.50;;
13083;SDS011;6608;48.790;9.198;2024-03-06T06:33:44;119.50;;;58.13;;
13083;SDS011;6608;48.790;9.198;2024-03-06T06:36:12;120.50;;;58.10;;
13083;SDS011;6608;48.790;9.198;2024-03-06T06:38:40;116.70;;;57.63;;
13083;SDS011;6608;48.790;9.198;2024-03-06T06:41:06;116.40;;;57.87;;
13083;SDS011;6608;48.790;9.198;2024-03-06T06:43:32;118.83;;;58.67;;
13083;SDS011;6608;48.790;9.198;2024-03-06T06:45:59;118.50;;;58.27;;
13083;SDS011;6608;48.790;9.198;2024-03-06T06:48:26;119.80;;;57.37;;
13083;SDS011;6608;48.790;9.198;2024-03-06T06:50:53;117.30;;;57.63;;
13083;SDS011;6608;48.790;9.198;2024-03-06T06:53:19;121.20;;;59.50;;
13083;SDS011;6608;48.790;9.198;2024-03-06T06:55:47;118.23;;;58.33;;
13083;SDS011;6608;48.790;9.198;2024-03-06T06:58:13;123.93;;;58.33;;
13083;SDS011;6608;48.790;9.198;2024-03-06T07:00:40;120.30;;;58.67;;
13083;SDS011;6608;48.790;9.198;2024-03-06T07:03:07;119.37;;;58.80;;
13083;SDS011;6608;48.790;9.198;2024-03-06T07:05:33;120.17;;;58.87;;
13083;SDS011;6608;48.790;9.198;2024-03-06T07:07:59;118.73;;;58.53;;
13083;SDS011;6608;48.790;9.198;2024-03-06T07:10:26;133.97;;;66.83;;
13083;SDS011;6608;48.790;9.198;2024-03-06T07:12:54;119.57;;;59.10;;
13083;SDS011;6608;48.790;9.198;2024-03-06T07:15:20;120.30;;;59.13;;
13083;SDS011;6608;48.790;9.198;2024-03-06T07:17:47;119.03;;;58.03;;
13083;SDS011;6608;48.790;9.198;2024-03-06T07:20:13;124.13;;;61.60;;
13083;SDS011;6608;48.790;9.198;2024-03-06T07:22:40;121.03;;;58.83;;
13083;SDS011;6608;48.790;9.198;2024-03-06T07:25:07;121.50;;;58.10;;
13083;SDS011;6608;48.790;9.198;2024-03-06T07:27:34;118.90;;;58.90;;
13083;SDS011;6608;48.790;9.198;2024-03-06T07:30:02;116.17;;;57.50;;
13083;SDS011;6608;48.790;9.198;2024-03-06T07:32:29;122.77;;;59.30;;
13083;SDS011;6608;48.790;9.198;2024-03-06T07:34:55;117.80;;;58.00;;
13083;SDS011;6608;48.790;9.198;2024-03-06T07:37:23;120.17;;;59.30;;
13083;SDS011;6608;48.790;9.198;2024-03-06T07:39:49;117.23;;;57.60;;
13083;SDS011;6608;48.790;9.198;2024-03-06T07:42:16;118.33;;;58.40;;
13083;SDS011;6608;48.790;9.198;2024-03-06T07:44:43;117.67;;;58.33;;
13083;SDS011;6608;48.790;9.198;2024-03-06T07:47:11;120.57;;;58.93;;
13083;SDS011;6608;48.790;9.198;2024-03-06T07:49:39;121.30;;;58.87;;
13083;SDS011;6608;48.790;9.198;2024-03-06T07:52:06;121.83;;;58.53;;
13083;SDS011;6608;48.790;9.198;2024-03-06T07:54:32;121.93;;;59.10;;
13083;SDS011;6608;48.790;9.198;2024-03-06T07:56:59;132.57;;;64.10;;
13083;SDS011;6608;48.790;9.198;2024-03-06T07:59:25;121.63;;;59.27;;
13083;SDS011;6608;48.790;9.198;2024-03-06T08:01:52;122.20;;;59.77;;
13083;SDS011;6608;48.790;9.198;2024-03-06T08:04:21;118.27;;;57.67;;
13083;SDS011;6608;48.790;9.198;2024-03-06T08:06:48;123.13;;;59.77;;
13083;SDS011;6608;48.790;9.198;2024-03-06T08:09:15;119.17;;;58.97;;
13083;SDS011;6608;48.790;9.198;2024-03-06T08:11:42;122.10;;;59.40;;
13083;SDS011;6608;48.790;9.198;2024-03-06T08:14:08;119.27;;;58.40;;
13083;SDS011;6608;48.790;9.198;2024-03-06T08:16:34;120.57;;;58.87;;
13083;SDS011;6608;48.790;9.198;2024-03-06T08:19:02;120.73;;;58.07;;
13083;SDS011;6608;48.790;9.198;2024-03-06T08:21:30;119.47;;;59.83;;
13083;SDS011;6608;48.790;9.198;2024-03-06T08:23:56;120.93;;;58.13;;
13083;SDS011;6608;48.790;9.198;2024-03-06T08:26:23;122.67;;;58.03;;
13083;SDS011;6608;48.790;9.198;2024-03-06T08:28:49;117.77;;;57.37;;
13083;SDS011;6608;48.790;9.198;2024-03-06T08:31:16;119.37;;;58.47;;
13083;SDS011;6608;48.790;9.198;2024-03-06T08:33:43;119.60;;;58.30;;
13083;SDS011;6608;48.790;9.198;2024-03-06T08:36:09;123.43;;;59.07;;
13083;SDS011;6608;48.790;9.198;2024-03-06T08:38:37;117.87;;;57.53;;
13083;SDS011;6608;48.790;9.198;2024-03-06T08:41:05;120.07;;;58.53;;
13083;SDS011;6608;48.790;9.198;2024-03-06T08:43:32;123.93;;;59.53;;
13083;SDS011;6608;48.790;9.198;2024-03-06T08:45:58;118.20;;;57.73;;
13083;SDS011;6608;48.790;9.198;2024-03-06T08:48:25;119.37;;;58.00;;
13083;SDS011;6608;48.790;9.198;2024-03-06T08:50:51;119.70;;;58.03;;
13083;SDS011;6608;48.790;9.198;2024-03-06T08:53:18;116.33;;;56.80;;
13083;SDS011;6608;48.790;9.198;2024-03-06T08:55:46;119.03;;;58.40;;
13083;SDS011;6608;48.790;9.198;2024-03-06T08:58:12;115.23;;;57.20;;
13083;SDS011;6608;48.790;9.198;2024-03-06T09:00:39;120.43;;;58.73;;
13083;SDS011;6608;48.790;9.198;2024-03-06T09:03:05;121.53;;;59.00;;
13083;SDS011;6608;48.790;9.198;2024-03-06T09:05:32;121.60;;;59.10;;
13083;SDS011;6608;48.790;9.198;2024-03-06T09:07:59;118.93;;;58.47;;
13083;SDS011;6608;48.790;9.198;2024-03-06T09:10:25;128.57;;;61.97;;
13083;SDS011;6608;48.790;9.198;2024-03-06T09:12:53;120.43;;;58.90;;
13083;SDS011;6608;48.790;9.198;2024-03-06T09:15:19;123.90;;;59.20;;
13083;SDS011;6608;48.790;9.198;2024-03-06T09:17:46;121.73;;;58.70;;
13083;SDS011;6608;48.790;9.198;2024-03-06T09:20:12;121.63;;;58.70;;
13083;SDS011;6608;48.790;9.198;2024-03-06T09:22:39;124.67;;;60.03;;
13083;SDS011;6608;48.790;9.198;2024-03-06T09:25:06;122.77;;;59.47;;
13083;SDS011;6608;48.790;9.198;2024-03-06T09:27:32;120.97;;;58.93;;
13083;SDS011;6608;48.790;9.198;2024-03-06T09:29:59;122.90;;;59.73;;
13083;SDS011;6608;48.790;9.198;2024-03-06T09:32:25;124.00;;;59.27;;
13083;SDS011;6608;48.790;9.198;2024-03-06T09:34:52;118.93;;;58.50;;
13083;SDS011;6608;48.790;9.198;2024-03-06T09:37:19;121.33;;;59.07;;
13083;SDS011;6608;48.790;9.198;2024-03-06T09:39:45;120.00;;;58.77;;
13083;SDS011;6608;48.790;9.198;2024-03-06T09:42:12;120.40;;;59.03;;
13083;SDS011;6608;48.790;9.198;2024-03-06T09:44:39;124.83;;;59.57;;
13083;SDS011;6608;48.790;9.198;2024-03-06T09:47:07;129.23;;;62.43;;
13083;SDS011;6608;48.790;9.198;2024-03-06T09:49:35;119.60;;;58.97;;
13083;SDS011;6608;48.790;9.198;2024-03-06T09:52:01;121.53;;;60.07;;
13083;SDS011;6608;48.790;9.198;2024-03-06T09:54:29;124.73;;;61.47;;
13083;SDS011;6608;48.790;9.198;2024-03-06T09:56:55;121.90;;;59.97;;
13083;SDS011;6608;48.790;9.198;2024-03-06T09:59:24;121.33;;;59.83;;
13083;SDS011;6608;48.790;9.198;2024-03-06T10:01:53;121.90;;;60.13;;
13083;SDS011;6608;48.790;9.198;2024-03-06T10:04:22;123.50;;;60.70;;
13083;SDS011;6608;48.790;9.198;2024-03-06T10:06:49;123.63;;;61.60;;
13083;SDS011;6608;48.790;9.198;2024-03-06T10:09:17;122.67;;;61.33;;
13083;SDS011;6608;48.790;9.198;2024-03-06T10:11:43;124.43;;;61.50;;
13083;SDS011;6608;48.790;9.198;2024-03-06T10:14:10;122.60;;;60.50;;
13083;SDS011;6608;48.790;9.198;2024-03-06T10:16:37;119.83;;;59.27;;
13083;SDS011;6608;48.790;9.198;2024-03-06T10:19:16;124.43;;;60.77;;
13083;SDS011;6608;48.790;9.198;2024-03-06T10:21:46;125.17;;;62.33;;
13083;SDS011;6608;48.790;9.198;2024-03-06T10:24:14;123.13;;;60.90;;
13083;SDS011;6608;48.790;9.198;2024-03-06T10:26:43;126.17;;;61.93;;
13083;SDS011;6608;48.790;9.198;2024-03-06T10:29:10;121.23;;;59.63;;
13083;SDS011;6608;48.790;9.198;2024-03-06T10:31:37;125.43;;;62.73;;
13083;SDS011;6608;48.790;9.198;2024-03-06T10:34:04;128.13;;;63.00;;
13083;SDS011;6608;48.790;9.198;2024-03-06T10:36:31;124.33;;;60.73;;
13083;SDS011;6608;48.790;9.198;2024-03-06T10:38:59;123.77;;;61.70;;
13083;SDS011;6608;48.790;9.198;2024-03-06T10:41:26;128.53;;;62.13;;
13083;SDS011;6608;48.790;9.198;2024-03-06T10:43:57;123.77;;;61.90;;
13083;SDS011;6608;48.790;9.198;2024-03-06T10:46:25;126.33;;;63.80;;
13083;SDS011;6608;48.790;9.198;2024-03-06T10:48:53;124.97;;;62.43;;
13083;SDS011;6608;48.790;9.198;2024-03-06T10:51:23;130.77;;;63.77;;
13083;SDS011;6608;48.790;9.198;2024-03-06T10:53:51;125.03;;;63.43;;
13083;SDS011;6608;48.790;9.198;2024-03-06T10:56:19;131.50;;;64.97;;
13083;SDS011;6608;48.790;9.198;2024-03-06T10:58:47;126.70;;;63.40;;
13083;SDS011;6608;48.790;9.198;2024-03-06T11:01:16;128.17;;;64.00;;
13083;SDS011;6608;48.790;9.198;2024-03-06T11:03:44;127.87;;;64.10;;
13083;SDS011;6608;48.790;9.198;2024-03-06T11:06:12;129.97;;;65.47;;
13083;SDS011;6608;48.790;9.198;2024-03-06T11:08:39;126.97;;;64.77;;
13083;SDS011;6608;48.790;9.198;2024-03-06T11:11:23;128.67;;;65.23;;
13083;SDS011;6608;48.790;9.198;2024-03-06T11:13:49;132.97;;;65.60;;
13083;SDS011;6608;48.790;9.198;2024-03-06T11:16:16;128.00;;;64.70;;
13083;SDS011;6608;48.790;9.198;2024-03-06T11:18:43;129.67;;;65.23;;
13083;SDS011;6608;48.790;9.198;2024-03-06T11:21:28;127.17;;;63.53;;
13083;SDS011;6608;48.790;9.198;2024-03-06T11:24:16;131.80;;;64.37;;
13083;SDS011;6608;48.790;9.198;2024-03-06T11:26:47;130.23;;;66.03;;
13083;SDS011;6608;48.790;9.198;2024-03-06T11:29:15;128.93;;;65.83;;
13083;SDS011;6608;48.790;9.198;2024-03-06T11:31:55;130.27;;;65.40;;
13083;SDS011;6608;48.790;9.198;2024-03-06T11:34:22;133.20;;;66.07;;
13083;SDS011;6608;48.790;9.198;2024-03-06T11:36:52;127.50;;;65.07;;
13083;SDS011;6608;48.790;9.198;2024-03-06T11:39:19;131.50;;;65.50;;
13083;SDS011;6608;48.790;9.198;2024-03-06T11:41:48;131.13;;;67.03;;
13083;SDS011;6608;48.790;9.198;2024-03-06T11:44:15;129.73;;;66.90;;
13083;SDS011;6608;48.790;9.198;2024-03-06T11:46:42;132.73;;;67.97;;
13083;SDS011;6608;48.790;9.198;2024-03-06T11:49:14;130.80;;;66.43;;
13083;SDS011;6608;48.790;9.198;2024-03-06T11:51:41;125.73;;;64.93;;
13083;SDS011;6608;48.790;9.198;2024-03-06T11:54:07;138.13;;;68.53;;
13083;SDS011;6608;48.790;9.198;2024-03-06T11:56:35;130.17;;;66.30;;
13083;SDS011;6608;48.790;9.198;2024-03-06T11:59:04;135.53;;;68.20;;
13083;SDS011;6608;48.790;9.198;2024-03-06T12:01:31;132.97;;;68.53;;
13083;SDS011;6608;48.790;9.198;2024-03-06T12:03:58;133.37;;;68.33;;
13083;SDS011;6608;48.790;9.198;2024-03-06T12:06:26;143.87;;;76.57;;
13083;SDS011;6608;48.790;9.198;2024-03-06T12:08:52;133.50;;;68.63;;
13083;SDS011;6608;48.790;9.198;2024-03-06T12:11:19;132.83;;;67.43;;
13083;SDS011;6608;48.790;9.198;2024-03-06T12:13:46;133.23;;;67.43;;
13083;SDS011;6608;48.790;9.198;2024-03-06T12:16:14;133.83;;;70.63;;
13083;SDS011;6608;48.790;9.198;2024-03-06T12:18:41;132.17;;;69.07;;
13083;SDS011;6608;48.790;9.198;2024-03-06T12:21:10;134.13;;;69.60;;
13083;SDS011;6608;48.790;9.198;2024-03-06T12:23:36;134.17;;;69.23;;
13083;SDS011;6608;48.790;9.198;2024-03-06T12:26:03;133.67;;;68.83;;
13083;SDS011;6608;48.790;9.198;2024-03-06T12:28:30;131.27;;;67.57;;
13083;SDS011;6608;48.790;9.198;2024-03-06T12:30:56;134.70;;;69.07;;
13083;SDS011;6608;48.790;9.198;2024-03-06T12:33:27;131.77;;;67.83;;
13083;SDS011;6608;48.790;9.198;2024-03-06T12:36:04;122.83;;;63.40;;
13083;SDS011;6608;48.790;9.198;2024-03-06T12:38:30;133.07;;;69.60;;
13083;SDS011;6608;48.790;9.198;2024-03-06T12:40:57;133.80;;;67.47;;
13083;SDS011;6608;48.790;9.198;2024-03-06T12:43:24;132.20;;;66.53;;
13083;SDS011;6608;48.790;9.198;2024-03-06T12:45:50;149.07;;;79.77;;
13083;SDS011;6608;48.790;9.198;2024-03-06T12:48:19;134.33;;;68.87;;
13083;SDS011;6608;48.790;9.198;2024-03-06T12:50:47;138.60;;;71.77;;
13083;SDS011;6608;48.790;9.198;2024-03-06T12:53:17;133.17;;;67.23;;
13083;SDS011;6608;48.790;9.198;2024-03-06T12:55:44;129.83;;;66.60;;
13083;SDS011;6608;48.790;9.198;2024-03-06T12:58:11;133.03;;;68.20;;
13083;SDS011;6608;48.790;9.198;2024-03-06T13:00:37;129.67;;;66.87;;
13083;SDS011;6608;48.790;9.198;2024-03-06T13:03:04;130.37;;;67.80;;
13083;SDS011;6608;48.790;9.198;2024-03-06T13:05:31;131.37;;;68.50;;
13083;SDS011;6608;48.790;9.198;2024-03-06T13:07:59;132.77;;;68.70;;
13083;SDS011;6608;48.790;9.198;2024-03-06T13:10:26;134.70;;;70.00;;
13083;SDS011;6608;48.790;9.198;2024-03-06T13:12:52;136.13;;;68.80;;
13083;SDS011;6608;48.790;9.198;2024-03-06T13:15:19;136.23;;;69.83;;
13083;SDS011;6608;48.790;9.198;2024-03-06T13:17:47;132.63;;;68.27;;
13083;SDS011;6608;48.790;9.198;2024-03-06T13:20:14;132.43;;;68.97;;
13083;SDS011;6608;48.790;9.198;2024-03-06T13:22:40;147.67;;;81.30;;
13083;SDS011;6608;48.790;9.198;2024-03-06T13:25:10;132.60;;;68.37;;
13083;SDS011;6608;48.790;9.198;2024-03-06T13:27:38;131.50;;;68.40;;
13083;SDS011;6608;48.790;9.198;2024-03-06T13:30:05;131.97;;;66.43;;
13083;SDS011;6608;48.790;9.198;2024-03-06T13:32:33;131.53;;;66.73;;
13083;SDS011;6608;48.790;9.198;2024-03-06T13:34:59;131.13;;;67.23;;
13083;SDS011;6608;48.790;9.198;2024-03-06T13:37:25;131.60;;;66.90;;
13083;SDS011;6608;48.790;9.198;2024-03-06T13:39:51;128.57;;;64.67;;
13083;SDS011;6608;48.790;9.198;2024-03-06T13:42:20;130.23;;;67.07;;
13083;SDS011;6608;48.790;9.198;2024-03-06T13:44:46;133.73;;;68.00;;
13083;SDS011;6608;48.790;9.198;2024-03-06T13:47:14;131.60;;;66.40;;
13083;SDS011;6608;48.790;9.198;2024-03-06T13:49:42;131.10;;;67.07;;
13083;SDS011;6608;48.790;9.198;2024-03-06T13:52:09;130.17;;;66.90;;
13083;SDS011;6608;48.790;9.198;2024-03-06T13:54:37;135.30;;;68.10;;
13083;SDS011;6608;48.790;9.198;2024-03-06T13:57:03;128.30;;;65.53;;
13083;SDS011;6608;48.790;9.198;2024-03-06T13:59:31;134.67;;;68.60;;
13083;SDS011;6608;48.790;9.198;2024-03-06T14:01:58;136.57;;;68.63;;
13083;SDS011;6608;48.790;9.198;2024-03-06T14:04:25;131.73;;;67.13;;
13083;SDS011;6608;48.790;9.198;2024-03-06T14:06:51;128.10;;;65.47;;
13083;SDS011;6608;48.790;9.198;2024-03-06T14:09:18;128.80;;;65.97;;
13083;SDS011;6608;48.790;9.198;2024-03-06T14:11:44;129.00;;;64.97;;
13083;SDS011;6608;48.790;9.198;2024-03-06T14:14:11;133.23;;;68.63;;
13083;SDS011;6608;48.790;9.198;2024-03-06T14:16:39;140.10;;;72.87;;
13083;SDS011;6608;48.790;9.198;2024-03-06T14:19:07;132.00;;;67.93;;
13083;SDS011;6608;48.790;9.198;2024-03-06T14:21:34;130.20;;;65.40;;